sensor_id;sensor_type;location;lat;lon;timestamp;pressure;altitude;pressure_sealevel;temperature;humidity
64023;BME280;50264;52.088;5.296;2022-07-23T00:01:59;101917.0;;;14.64;80.91
64023;BME280;50264;52.088;5.296;2022-07-23T00:03:45;101914.0;;;14.56;81.03
64023;BME280;50264;52.088;5.296;2022-07-23T00:05:31;101908.0;;;14.56;81.08
64023;BME280;50264;52.088;5.296;2022-07-23T00:07:18;101915.0;;;14.56;81.89
64023;BME280;50264;52.088;5.296;2022-07-23T00:09:04;101913.0;;;14.59;81.52
64023;BME280;50264;52.088;5.296;2022-07-23T00:10:51;101915.0;;;14.49;81.72
64023;BME280;50264;52.088;5.296;2022-07-23T00:14:25;101919.0;;;14.38;81.81
64023;BME280;50264;52.088;5.296;2022-07-23T00:16:11;101919.0;;;14.33;81.44
64023;BME280;50264;52.088;5.296;2022-07-23T00:17:57;101919.0;;;14.34;81.72
64023;BME280;50264;52.088;5.296;2022-07-23T00:19:43;101915.0;;;14.47;82.06
64023;BME280;50264;52.088;5.296;2022-07-23T00:21:31;101911.0;;;14.57;80.55
64023;BME280;50264;52.088;5.296;2022-07-23T00:25:04;101912.0;;;14.42;81.06
64023;BME280;50264;52.088;5.296;2022-07-23T00:26:50;101913.0;;;14.4;81.02
64023;BME280;50264;52.088;5.296;2022-07-23T00:28:36;101914.0;;;14.51;80.66
64023;BME280;50264;52.088;5.296;2022-07-23T00:30:23;101908.0;;;14.33;81.0
64023;BME280;50264;52.088;5.296;2022-07-23T00:32:10;101905.0;;;14.36;81.41
64023;BME280;50264;52.088;5.296;2022-07-23T00:33:57;101903.0;;;14.58;80.86
64023;BME280;50264;52.088;5.296;2022-07-23T00:37:30;101902.0;;;14.54;80.11
64023;BME280;50264;52.088;5.296;2022-07-23T00:39:17;101903.0;;;14.33;80.59
64023;BME280;50264;52.088;5.296;2022-07-23T00:41:04;101902.0;;;14.29;81.96
64023;BME280;50264;52.088;5.296;2022-07-23T00:42:51;101901.0;;;14.15;81.81
64023;BME280;50264;52.088;5.296;2022-07-23T00:44:37;101896.0;;;14.07;82.04
64023;BME280;50264;52.088;5.296;2022-07-23T00:48:11;101901.0;;;14.01;82.35
64023;BME280;50264;52.088;5.296;2022-07-23T00:49:57;101902.0;;;14.04;81.61
64023;BME280;50264;52.088;5.296;2022-07-23T00:51:45;101901.0;;;14.01;81.72
64023;BME280;50264;52.088;5.296;2022-07-23T00:53:32;101898.0;;;13.97;81.52
64023;BME280;50264;52.088;5.296;2022-07-23T00:55:18;101899.0;;;13.94;82.0
64023;BME280;50264;52.088;5.296;2022-07-23T00:57:05;101893.0;;;13.93;81.98
64023;BME280;50264;52.088;5.296;2022-07-23T01:00:38;101892.0;;;13.92;82.23
64023;BME280;50264;52.088;5.296;2022-07-23T01:02:23;101891.0;;;13.9;81.44
64023;BME280;50264;52.088;5.296;2022-07-23T01:04:10;101891.0;;;13.88;82.43
64023;BME280;50264;52.088;5.296;2022-07-23T01:05:57;101891.0;;;13.8;82.32
64023;BME280;50264;52.088;5.296;2022-07-23T01:07:45;101883.0;;;13.74;82.18
64023;BME280;50264;52.088;5.296;2022-07-23T01:09:32;101886.0;;;13.65;82.76
64023;BME280;50264;52.088;5.296;2022-07-23T01:13:07;101890.0;;;13.6;83.1
64023;BME280;50264;52.088;5.296;2022-07-23T01:14:56;101889.0;;;13.62;82.71
64023;BME280;50264;52.088;5.296;2022-07-23T01:16:45;101882.0;;;13.5;82.43
64023;BME280;50264;52.088;5.296;2022-07-23T01:18:32;101872.0;;;13.5;83.03
64023;BME280;50264;52.088;5.296;2022-07-23T01:20:20;101874.0;;;13.45;83.42
64023;BME280;50264;52.088;5.296;2022-07-23T01:22:07;101873.0;;;13.64;82.34
64023;BME280;50264;52.088;5.296;2022-07-23T01:25:47;101872.0;;;13.69;81.47
64023;BME280;50264;52.088;5.296;2022-07-23T01:27:33;101869.0;;;13.67;81.22
64023;BME280;50264;52.088;5.296;2022-07-23T01:29:21;101861.0;;;13.77;80.86
64023;BME280;50264;52.088;5.296;2022-07-23T01:31:08;101865.0;;;13.64;81.3
64023;BME280;50264;52.088;5.296;2022-07-23T01:32:54;101865.0;;;13.54;82.24
64023;BME280;50264;52.088;5.296;2022-07-23T01:34:41;101868.0;;;13.44;82.57
64023;BME280;50264;52.088;5.296;2022-07-23T01:38:14;101867.0;;;13.34;82.04
64023;BME280;50264;52.088;5.296;2022-07-23T01:40:01;101866.0;;;13.19;82.43
64023;BME280;50264;52.088;5.296;2022-07-23T01:41:49;101869.0;;;13.17;82.25
64023;BME280;50264;52.088;5.296;2022-07-23T01:43:35;101870.0;;;13.14;82.56
64023;BME280;50264;52.088;5.296;2022-07-23T01:45:21;101868.0;;;13.08;82.52
64023;BME280;50264;52.088;5.296;2022-07-23T01:47:08;101873.0;;;13.11;82.12
64023;BME280;50264;52.088;5.296;2022-07-23T01:50:40;101872.0;;;13.07;82.51
64023;BME280;50264;52.088;5.296;2022-07-23T01:52:27;101875.0;;;13.15;82.79
64023;BME280;50264;52.088;5.296;2022-07-23T01:54:13;101875.0;;;13.13;82.93
64023;BME280;50264;52.088;5.296;2022-07-23T01:56:00;101876.0;;;13.19;83.24
64023;BME280;50264;52.088;5.296;2022-07-23T01:57:46;101871.0;;;13.18;83.05
64023;BME280;50264;52.088;5.296;2022-07-23T02:01:21;101873.0;;;13.06;82.83
64023;BME280;50264;52.088;5.296;2022-07-23T02:03:08;101873.0;;;13.06;83.05
64023;BME280;50264;52.088;5.296;2022-07-23T02:04:54;101875.0;;;13.06;82.59
64023;BME280;50264;52.088;5.296;2022-07-23T02:06:40;101874.0;;;12.99;83.02
64023;BME280;50264;52.088;5.296;2022-07-23T02:08:26;101869.0;;;13.01;82.79
64023;BME280;50264;52.088;5.296;2022-07-23T02:10:12;101868.0;;;13.18;80.94
64023;BME280;50264;52.088;5.296;2022-07-23T02:13:45;101864.0;;;13.04;81.55
64023;BME280;50264;52.088;5.296;2022-07-23T02:15:31;101865.0;;;12.96;82.7
64023;BME280;50264;52.088;5.296;2022-07-23T02:17:18;101861.0;;;12.92;82.73
64023;BME280;50264;52.088;5.296;2022-07-23T02:19:04;101870.0;;;12.83;82.58
64023;BME280;50264;52.088;5.296;2022-07-23T02:20:51;101868.0;;;12.68;82.02
64023;BME280;50264;52.088;5.296;2022-07-23T02:22:38;101865.0;;;12.66;83.12
64023;BME280;50264;52.088;5.296;2022-07-23T02:26:11;101868.0;;;12.86;82.82
64023;BME280;50264;52.088;5.296;2022-07-23T02:27:57;101871.0;;;12.87;82.51
64023;BME280;50264;52.088;5.296;2022-07-23T02:29:43;101868.0;;;12.79;82.5
64023;BME280;50264;52.088;5.296;2022-07-23T02:31:31;101870.0;;;12.7;82.48
64023;BME280;50264;52.088;5.296;2022-07-23T02:33:18;101875.0;;;12.7;82.61
64023;BME280;50264;52.088;5.296;2022-07-23T02:36:52;101874.0;;;12.72;82.83
64023;BME280;50264;52.088;5.296;2022-07-23T02:38:38;101867.0;;;12.61;82.69
64023;BME280;50264;52.088;5.296;2022-07-23T02:40:25;101866.0;;;12.56;82.79
64023;BME280;50264;52.088;5.296;2022-07-23T02:42:11;101862.0;;;12.61;82.62
64023;BME280;50264;52.088;5.296;2022-07-23T02:43:58;101868.0;;;12.61;82.33
64023;BME280;50264;52.088;5.296;2022-07-23T02:45:44;101870.0;;;12.55;82.27
64023;BME280;50264;52.088;5.296;2022-07-23T02:49:19;101875.0;;;12.49;82.46
64023;BME280;50264;52.088;5.296;2022-07-23T02:51:05;101877.0;;;12.47;82.85
64023;BME280;50264;52.088;5.296;2022-07-23T02:52:52;101880.0;;;12.41;82.33
64023;BME280;50264;52.088;5.296;2022-07-23T02:54:39;101877.0;;;12.35;83.08
64023;BME280;50264;52.088;5.296;2022-07-23T02:56:25;101880.0;;;12.41;83.08
64023;BME280;50264;52.088;5.296;2022-07-23T02:58:11;101882.0;;;12.43;82.93
64023;BME280;50264;52.088;5.296;2022-07-23T03:01:44;101883.0;;;12.39;82.43
64023;BME280;50264;52.088;5.296;2022-07-23T03:03:31;101886.0;;;12.37;82.55
64023;BME280;50264;52.088;5.296;2022-07-23T03:05:17;101887.0;;;12.38;82.08
64023;BME280;50264;52.088;5.296;2022-07-23T03:07:03;101888.0;;;12.3;83.05
64023;BME280;50264;52.088;5.296;2022-07-23T03:08:49;101887.0;;;12.28;82.76
64023;BME280;50264;52.088;5.296;2022-07-23T03:12:21;101891.0;;;12.3;82.66
64023;BME280;50264;52.088;5.296;2022-07-23T03:14:07;101894.0;;;12.27;82.8
64023;BME280;50264;52.088;5.296;2022-07-23T03:15:54;101894.0;;;12.36;82.64
64023;BME280;50264;52.088;5.296;2022-07-23T03:17:40;101894.0;;;12.34;82.42
64023;BME280;50264;52.088;5.296;2022-07-23T03:19:26;101897.0;;;12.25;81.69
64023;BME280;50264;52.088;5.296;2022-07-23T03:21:13;101895.0;;;12.2;82.52
64023;BME280;50264;52.088;5.296;2022-07-23T03:25:01;101895.0;;;12.16;82.05
64023;BME280;50264;52.088;5.296;2022-07-23T03:26:48;101899.0;;;12.16;82.73
64023;BME280;50264;52.088;5.296;2022-07-23T03:28:34;101900.0;;;12.18;82.53
64023;BME280;50264;52.088;5.296;2022-07-23T03:30:20;101901.0;;;12.17;83.52
64023;BME280;50264;52.088;5.296;2022-07-23T03:32:07;101905.0;;;12.09;82.77
64023;BME280;50264;52.088;5.296;2022-07-23T03:33:54;101908.0;;;12.04;82.28
64023;BME280;50264;52.088;5.296;2022-07-23T03:38:07;101914.0;;;12.03;82.56
64023;BME280;50264;52.088;5.296;2022-07-23T03:41:39;101916.0;;;11.99;82.68
64023;BME280;50264;52.088;5.296;2022-07-23T03:43:25;101909.0;;;11.99;82.74
64023;BME280;50264;52.088;5.296;2022-07-23T03:45:11;101905.0;;;12.17;82.98
64023;BME280;50264;52.088;5.296;2022-07-23T03:46:59;101905.0;;;12.3;82.11
64023;BME280;50264;52.088;5.296;2022-07-23T03:48:46;101903.0;;;12.31;81.81
64023;BME280;50264;52.088;5.296;2022-07-23T03:50:32;101902.0;;;12.5;81.14
64023;BME280;50264;52.088;5.296;2022-07-23T03:54:07;101900.0;;;12.41;80.81
64023;BME280;50264;52.088;5.296;2022-07-23T03:55:52;101897.0;;;12.44;81.03
64023;BME280;50264;52.088;5.296;2022-07-23T03:57:39;101894.0;;;12.32;80.62
64023;BME280;50264;52.088;5.296;2022-07-23T03:59:26;101889.0;;;12.3;81.16
64023;BME280;50264;52.088;5.296;2022-07-23T04:01:12;101887.0;;;12.29;80.49
64023;BME280;50264;52.088;5.296;2022-07-23T04:04:46;101888.0;;;12.15;80.92
64023;BME280;50264;52.088;5.296;2022-07-23T04:06:34;101880.0;;;12.12;81.91
64023;BME280;50264;52.088;5.296;2022-07-23T04:08:21;101881.0;;;12.14;81.42
64023;BME280;50264;52.088;5.296;2022-07-23T04:10:08;101880.0;;;12.04;81.33
64023;BME280;50264;52.088;5.296;2022-07-23T04:11:55;101882.0;;;12.11;81.73
64023;BME280;50264;52.088;5.296;2022-07-23T04:13:41;101885.0;;;12.2;81.44
64023;BME280;50264;52.088;5.296;2022-07-23T04:17:14;101886.0;;;12.13;81.31
64023;BME280;50264;52.088;5.296;2022-07-23T04:19:00;101892.0;;;12.02;81.77
64023;BME280;50264;52.088;5.296;2022-07-23T04:20:48;101888.0;;;11.98;82.08
64023;BME280;50264;52.088;5.296;2022-07-23T04:22:34;101887.0;;;11.89;83.17
64023;BME280;50264;52.088;5.296;2022-07-23T04:24:20;101885.0;;;11.77;83.13
64023;BME280;50264;52.088;5.296;2022-07-23T04:26:07;101881.0;;;11.75;83.4
64023;BME280;50264;52.088;5.296;2022-07-23T04:29:39;101891.0;;;11.74;83.28
64023;BME280;50264;52.088;5.296;2022-07-23T04:31:25;101891.0;;;11.78;82.93
64023;BME280;50264;52.088;5.296;2022-07-23T04:33:11;101890.0;;;11.79;83.04
64023;BME280;50264;52.088;5.296;2022-07-23T04:34:58;101890.0;;;11.82;83.19
64023;BME280;50264;52.088;5.296;2022-07-23T04:36:45;101893.0;;;11.95;83.37
64023;BME280;50264;52.088;5.296;2022-07-23T04:40:19;101895.0;;;12.0;82.85
64023;BME280;50264;52.088;5.296;2022-07-23T04:42:06;101896.0;;;12.01;82.96
64023;BME280;50264;52.088;5.296;2022-07-23T04:43:52;101899.0;;;12.14;82.3
64023;BME280;50264;52.088;5.296;2022-07-23T04:45:39;101903.0;;;12.05;82.75
64023;BME280;50264;52.088;5.296;2022-07-23T04:47:26;101901.0;;;12.06;83.11
64023;BME280;50264;52.088;5.296;2022-07-23T04:49:12;101899.0;;;11.98;83.37
64023;BME280;50264;52.088;5.296;2022-07-23T04:52:45;101905.0;;;11.95;83.49
64023;BME280;50264;52.088;5.296;2022-07-23T04:54:31;101905.0;;;11.86;83.67
64023;BME280;50264;52.088;5.296;2022-07-23T04:56:18;101905.0;;;11.94;83.88
64023;BME280;50264;52.088;5.296;2022-07-23T04:58:04;101913.0;;;12.02;83.76
64023;BME280;50264;52.088;5.296;2022-07-23T04:59:50;101911.0;;;12.07;83.78
64023;BME280;50264;52.088;5.296;2022-07-23T05:01:37;101909.0;;;12.13;83.57
64023;BME280;50264;52.088;5.296;2022-07-23T05:05:09;101910.0;;;12.37;82.77
64023;BME280;50264;52.088;5.296;2022-07-23T05:06:56;101907.0;;;12.42;82.14
64023;BME280;50264;52.088;5.296;2022-07-23T05:08:43;101907.0;;;12.4;82.73
64023;BME280;50264;52.088;5.296;2022-07-23T05:10:30;101906.0;;;12.4;82.95
64023;BME280;50264;52.088;5.296;2022-07-23T05:12:16;101912.0;;;12.34;82.93
64023;BME280;50264;52.088;5.296;2022-07-23T05:15:50;101911.0;;;12.37;83.14
64023;BME280;50264;52.088;5.296;2022-07-23T05:17:37;101918.0;;;12.42;83.0
64023;BME280;50264;52.088;5.296;2022-07-23T05:19:23;101919.0;;;12.44;83.1
64023;BME280;50264;52.088;5.296;2022-07-23T05:21:09;101920.0;;;12.5;83.37
64023;BME280;50264;52.088;5.296;2022-07-23T05:22:56;101920.0;;;12.7;83.12
64023;BME280;50264;52.088;5.296;2022-07-23T05:24:43;101919.0;;;12.9;82.4
64023;BME280;50264;52.088;5.296;2022-07-23T05:28:15;101912.0;;;12.97;82.07
64023;BME280;50264;52.088;5.296;2022-07-23T05:30:02;101921.0;;;12.89;82.17
64023;BME280;50264;52.088;5.296;2022-07-23T05:31:49;101927.0;;;13.02;82.1
64023;BME280;50264;52.088;5.296;2022-07-23T05:33:35;101930.0;;;13.0;82.04
64023;BME280;50264;52.088;5.296;2022-07-23T05:35:21;101930.0;;;13.01;82.52
64023;BME280;50264;52.088;5.296;2022-07-23T05:38:54;101931.0;;;13.01;82.6
64023;BME280;50264;52.088;5.296;2022-07-23T05:40:40;101934.0;;;13.01;82.66
64023;BME280;50264;52.088;5.296;2022-07-23T05:42:26;101934.0;;;13.13;82.93
64023;BME280;50264;52.088;5.296;2022-07-23T05:44:12;101935.0;;;13.23;82.78
64023;BME280;50264;52.088;5.296;2022-07-23T05:45:58;101935.0;;;13.23;82.62
64023;BME280;50264;52.088;5.296;2022-07-23T05:47:46;101935.0;;;13.24;82.86
64023;BME280;50264;52.088;5.296;2022-07-23T05:51:24;101937.0;;;13.3;82.92
64023;BME280;50264;52.088;5.296;2022-07-23T05:53:12;101936.0;;;13.4;82.95
64023;BME280;50264;52.088;5.296;2022-07-23T05:54:59;101937.0;;;13.56;82.54
64023;BME280;50264;52.088;5.296;2022-07-23T05:56:46;101933.0;;;13.72;82.09
64023;BME280;50264;52.088;5.296;2022-07-23T05:58:32;101940.0;;;13.65;82.7
64023;BME280;50264;52.088;5.296;2022-07-23T06:00:18;101937.0;;;13.66;82.82
64023;BME280;50264;52.088;5.296;2022-07-23T06:03:51;101943.0;;;13.64;83.35
64023;BME280;50264;52.088;5.296;2022-07-23T06:05:37;101947.0;;;13.71;83.79
64023;BME280;50264;52.088;5.296;2022-07-23T06:07:23;101949.0;;;13.8;83.87
64023;BME280;50264;52.088;5.296;2022-07-23T06:09:11;101945.0;;;13.95;83.19
64023;BME280;50264;52.088;5.296;2022-07-23T06:10:58;101946.0;;;14.03;83.0
64023;BME280;50264;52.088;5.296;2022-07-23T06:12:45;101952.0;;;14.15;83.21
64023;BME280;50264;52.088;5.296;2022-07-23T06:16:22;101950.0;;;14.17;82.69
64023;BME280;50264;52.088;5.296;2022-07-23T06:18:08;101955.0;;;14.24;83.57
64023;BME280;50264;52.088;5.296;2022-07-23T06:19:55;101946.0;;;14.44;83.42
64023;BME280;50264;52.088;5.296;2022-07-23T06:21:42;101943.0;;;14.57;83.2
64023;BME280;50264;52.088;5.296;2022-07-23T06:23:29;101943.0;;;14.68;82.73
64023;BME280;50264;52.088;5.296;2022-07-23T06:27:02;101941.0;;;14.74;82.62
64023;BME280;50264;52.088;5.296;2022-07-23T06:28:49;101945.0;;;14.83;82.37
64023;BME280;50264;52.088;5.296;2022-07-23T06:30:35;101947.0;;;14.88;82.45
64023;BME280;50264;52.088;5.296;2022-07-23T06:32:22;101945.0;;;15.01;82.91
64023;BME280;50264;52.088;5.296;2022-07-23T06:34:08;101947.0;;;15.15;82.54
64023;BME280;50264;52.088;5.296;2022-07-23T06:35:54;101948.0;;;15.21;82.96
64023;BME280;50264;52.088;5.296;2022-07-23T06:39:26;101948.0;;;15.3;82.72
64023;BME280;50264;52.088;5.296;2022-07-23T06:41:12;101947.0;;;15.42;82.98
64023;BME280;50264;52.088;5.296;2022-07-23T06:42:59;101941.0;;;15.5;82.63
64023;BME280;50264;52.088;5.296;2022-07-23T06:44:45;101940.0;;;15.62;82.5
64023;BME280;50264;52.088;5.296;2022-07-23T06:46:31;101944.0;;;15.83;80.97
64023;BME280;50264;52.088;5.296;2022-07-23T06:48:19;101944.0;;;15.91;80.78
64023;BME280;50264;52.088;5.296;2022-07-23T06:51:52;101940.0;;;16.02;81.73
64023;BME280;50264;52.088;5.296;2022-07-23T06:53:38;101936.0;;;16.18;80.98
64023;BME280;50264;52.088;5.296;2022-07-23T06:55:24;101942.0;;;16.32;81.55
64023;BME280;50264;52.088;5.296;2022-07-23T06:57:10;101938.0;;;16.47;81.0
64023;BME280;50264;52.088;5.296;2022-07-23T06:58:57;101945.0;;;16.5;81.05
64023;BME280;50264;52.088;5.296;2022-07-23T07:02:29;101946.0;;;16.77;79.3
64023;BME280;50264;52.088;5.296;2022-07-23T07:04:15;101953.0;;;16.95;76.72
64023;BME280;50264;52.088;5.296;2022-07-23T07:06:03;101958.0;;;17.09;74.95
64023;BME280;50264;52.088;5.296;2022-07-23T07:07:49;101959.0;;;17.23;76.17
64023;BME280;50264;52.088;5.296;2022-07-23T07:09:35;101955.0;;;17.34;76.05
64023;BME280;50264;52.088;5.296;2022-07-23T07:11:21;101961.0;;;17.41;74.05
64023;BME280;50264;52.088;5.296;2022-07-23T07:14:53;101962.0;;;17.47;73.69
64023;BME280;50264;52.088;5.296;2022-07-23T07:16:41;101960.0;;;17.52;71.73
64023;BME280;50264;52.088;5.296;2022-07-23T07:18:28;101961.0;;;17.61;72.66
64023;BME280;50264;52.088;5.296;2022-07-23T07:20:14;101961.0;;;17.73;72.48
64023;BME280;50264;52.088;5.296;2022-07-23T07:22:02;101962.0;;;17.79;69.91
64023;BME280;50264;52.088;5.296;2022-07-23T07:25:34;101965.0;;;17.84;70.77
64023;BME280;50264;52.088;5.296;2022-07-23T07:27:22;101966.0;;;18.02;71.28
64023;BME280;50264;52.088;5.296;2022-07-23T07:29:08;101966.0;;;17.97;69.34
64023;BME280;50264;52.088;5.296;2022-07-23T07:30:54;101962.0;;;18.09;71.92
64023;BME280;50264;52.088;5.296;2022-07-23T07:32:41;101969.0;;;18.05;73.25
64023;BME280;50264;52.088;5.296;2022-07-23T07:34:28;101967.0;;;18.05;73.06
64023;BME280;50264;52.088;5.296;2022-07-23T07:38:01;101966.0;;;18.09;73.19
64023;BME280;50264;52.088;5.296;2022-07-23T07:39:47;101975.0;;;18.18;71.33
64023;BME280;50264;52.088;5.296;2022-07-23T07:41:33;101973.0;;;18.36;71.02
64023;BME280;50264;52.088;5.296;2022-07-23T07:43:21;101980.0;;;18.34;69.42
64023;BME280;50264;52.088;5.296;2022-07-23T07:45:07;101980.0;;;18.43;69.75
64023;BME280;50264;52.088;5.296;2022-07-23T07:46:54;101978.0;;;18.52;66.14
64023;BME280;50264;52.088;5.296;2022-07-23T07:50:27;101978.0;;;18.59;64.95
64023;BME280;50264;52.088;5.296;2022-07-23T07:52:13;101976.0;;;18.61;64.44
64023;BME280;50264;52.088;5.296;2022-07-23T07:54:00;101977.0;;;18.77;65.95
64023;BME280;50264;52.088;5.296;2022-07-23T07:55:47;101972.0;;;18.75;67.11
64023;BME280;50264;52.088;5.296;2022-07-23T07:57:34;101973.0;;;18.86;67.08
64023;BME280;50264;52.088;5.296;2022-07-23T08:01:07;101976.0;;;18.75;68.22
64023;BME280;50264;52.088;5.296;2022-07-23T08:02:54;101984.0;;;19.0;63.81
64023;BME280;50264;52.088;5.296;2022-07-23T08:04:40;101992.0;;;19.11;63.62
64023;BME280;50264;52.088;5.296;2022-07-23T08:06:26;101986.0;;;19.16;62.29
64023;BME280;50264;52.088;5.296;2022-07-23T08:08:14;101993.0;;;19.16;62.88
64023;BME280;50264;52.088;5.296;2022-07-23T08:10:01;101984.0;;;19.23;62.04
64023;BME280;50264;52.088;5.296;2022-07-23T08:13:37;101989.0;;;19.31;62.2
64023;BME280;50264;52.088;5.296;2022-07-23T08:15:24;101988.0;;;19.43;61.07
64023;BME280;50264;52.088;5.296;2022-07-23T08:17:11;101984.0;;;19.46;60.3
64023;BME280;50264;52.088;5.296;2022-07-23T08:18:58;101989.0;;;19.52;61.19
64023;BME280;50264;52.088;5.296;2022-07-23T08:20:44;101987.0;;;19.54;62.42
64023;BME280;50264;52.088;5.296;2022-07-23T08:22:47;101990.0;;;19.48;63.05
64023;BME280;50264;52.088;5.296;2022-07-23T08:24:37;101989.0;;;19.47;63.83
64023;BME280;50264;52.088;5.296;2022-07-23T08:28:11;101993.0;;;19.63;62.95
64023;BME280;50264;52.088;5.296;2022-07-23T08:29:59;101990.0;;;19.71;60.17
64023;BME280;50264;52.088;5.296;2022-07-23T08:31:45;101989.0;;;19.7;59.61
64023;BME280;50264;52.088;5.296;2022-07-23T08:33:32;101984.0;;;19.8;59.62
64023;BME280;50264;52.088;5.296;2022-07-23T08:35:22;101988.0;;;19.75;59.79
64023;BME280;50264;52.088;5.296;2022-07-23T08:37:09;101991.0;;;19.81;58.98
64023;BME280;50264;52.088;5.296;2022-07-23T08:40:43;101990.0;;;19.79;59.19
64023;BME280;50264;52.088;5.296;2022-07-23T08:42:32;101989.0;;;19.91;58.99
64023;BME280;50264;52.088;5.296;2022-07-23T08:44:19;101991.0;;;19.98;58.16
64023;BME280;50264;52.088;5.296;2022-07-23T08:46:05;101985.0;;;20.02;57.95
64023;BME280;50264;52.088;5.296;2022-07-23T08:47:54;101980.0;;;20.11;58.65
64023;BME280;50264;52.088;5.296;2022-07-23T08:49:41;101978.0;;;20.06;58.95
64023;BME280;50264;52.088;5.296;2022-07-23T08:53:16;101983.0;;;20.02;59.22
64023;BME280;50264;52.088;5.296;2022-07-23T08:55:03;101992.0;;;20.21;58.03
64023;BME280;50264;52.088;5.296;2022-07-23T08:56:50;101989.0;;;20.27;56.9
64023;BME280;50264;52.088;5.296;2022-07-23T08:58:37;101988.0;;;20.49;56.78
64023;BME280;50264;52.088;5.296;2022-07-23T09:00:24;101988.0;;;20.57;55.28
64023;BME280;50264;52.088;5.296;2022-07-23T09:02:11;101991.0;;;20.66;56.88
64023;BME280;50264;52.088;5.296;2022-07-23T09:05:45;101992.0;;;20.75;56.46
64023;BME280;50264;52.088;5.296;2022-07-23T09:07:33;101992.0;;;20.87;55.93
64023;BME280;50264;52.088;5.296;2022-07-23T09:09:20;101995.0;;;21.01;55.28
64023;BME280;50264;52.088;5.296;2022-07-23T09:11:10;101993.0;;;21.1;54.51
64023;BME280;50264;52.088;5.296;2022-07-23T09:12:57;101994.0;;;21.23;53.56
64023;BME280;50264;52.088;5.296;2022-07-23T09:14:46;101992.0;;;21.38;55.25
64023;BME280;50264;52.088;5.296;2022-07-23T09:18:28;101992.0;;;21.3;51.21
64023;BME280;50264;52.088;5.296;2022-07-23T09:20:16;101995.0;;;21.35;54.72
64023;BME280;50264;52.088;5.296;2022-07-23T09:22:17;101997.0;;;21.42;52.82
64023;BME280;50264;52.088;5.296;2022-07-23T09:24:09;101994.0;;;21.44;52.75
64023;BME280;50264;52.088;5.296;2022-07-23T09:25:56;101987.0;;;21.66;52.41
64023;BME280;50264;52.088;5.296;2022-07-23T09:27:53;101987.0;;;21.79;51.41
64023;BME280;50264;52.088;5.296;2022-07-23T09:29:55;101988.0;;;21.93;52.27
64023;BME280;50264;52.088;5.296;2022-07-23T09:31:45;101991.0;;;21.83;50.67
64023;BME280;50264;52.088;5.296;2022-07-23T09:35:19;101992.0;;;22.12;51.47
64023;BME280;50264;52.088;5.296;2022-07-23T09:37:10;101991.0;;;22.2;51.6
64023;BME280;50264;52.088;5.296;2022-07-23T09:38:57;101997.0;;;22.24;52.3
64023;BME280;50264;52.088;5.296;2022-07-23T09:40:44;101993.0;;;22.32;52.1
64023;BME280;50264;52.088;5.296;2022-07-23T09:42:31;101995.0;;;22.54;50.9
64023;BME280;50264;52.088;5.296;2022-07-23T09:44:19;101994.0;;;22.71;50.64
64023;BME280;50264;52.088;5.296;2022-07-23T09:46:24;101994.0;;;22.79;50.63
64023;BME280;50264;52.088;5.296;2022-07-23T09:50:02;101997.0;;;22.74;48.13
64023;BME280;50264;52.088;5.296;2022-07-23T09:51:53;101996.0;;;22.65;48.76
64023;BME280;50264;52.088;5.296;2022-07-23T09:53:40;101995.0;;;22.81;49.43
64023;BME280;50264;52.088;5.296;2022-07-23T09:55:31;101996.0;;;22.97;48.51
64023;BME280;50264;52.088;5.296;2022-07-23T09:57:18;101995.0;;;22.95;49.04
64023;BME280;50264;52.088;5.296;2022-07-23T09:59:05;101992.0;;;22.99;50.33
64023;BME280;50264;52.088;5.296;2022-07-23T10:00:52;101990.0;;;23.1;51.38
64023;BME280;50264;52.088;5.296;2022-07-23T10:04:28;101991.0;;;23.33;51.7
64023;BME280;50264;52.088;5.296;2022-07-23T10:06:16;101992.0;;;23.38;49.79
64023;BME280;50264;52.088;5.296;2022-07-23T10:08:02;101986.0;;;23.64;48.74
64023;BME280;50264;52.088;5.296;2022-07-23T10:09:50;101990.0;;;23.69;47.4
64023;BME280;50264;52.088;5.296;2022-07-23T10:11:38;101984.0;;;23.91;49.26
64023;BME280;50264;52.088;5.296;2022-07-23T10:13:56;101987.0;;;23.89;46.44
64023;BME280;50264;52.088;5.296;2022-07-23T10:15:46;101987.0;;;24.16;48.56
64023;BME280;50264;52.088;5.296;2022-07-23T10:17:33;101986.0;;;23.99;44.45
64023;BME280;50264;52.088;5.296;2022-07-23T10:21:09;101981.0;;;23.97;44.03
64023;BME280;50264;52.088;5.296;2022-07-23T10:23:00;101980.0;;;24.12;47.55
64023;BME280;50264;52.088;5.296;2022-07-23T10:24:58;101980.0;;;23.92;44.98
64023;BME280;50264;52.088;5.296;2022-07-23T10:26:58;101982.0;;;23.94;46.38
64023;BME280;50264;52.088;5.296;2022-07-23T10:29:07;101978.0;;;24.05;45.99
64023;BME280;50264;52.088;5.296;2022-07-23T10:31:03;101980.0;;;24.06;50.68
64023;BME280;50264;52.088;5.296;2022-07-23T10:33:05;101978.0;;;24.16;46.58
64023;BME280;50264;52.088;5.296;2022-07-23T10:35:10;101982.0;;;24.11;45.95
64023;BME280;50264;52.088;5.296;2022-07-23T10:37:07;101980.0;;;24.37;45.88
64023;BME280;50264;52.088;5.296;2022-07-23T10:39:05;101977.0;;;24.31;45.84
64023;BME280;50264;52.088;5.296;2022-07-23T10:40:59;101977.0;;;24.33;44.6
64023;BME280;50264;52.088;5.296;2022-07-23T10:42:48;101977.0;;;24.33;45.3
64023;BME280;50264;52.088;5.296;2022-07-23T10:46:30;101973.0;;;24.35;44.34
64023;BME280;50264;52.088;5.296;2022-07-23T10:48:18;101973.0;;;24.43;46.91
64023;BME280;50264;52.088;5.296;2022-07-23T10:50:19;101971.0;;;24.52;45.09
64023;BME280;50264;52.088;5.296;2022-07-23T10:52:23;101969.0;;;24.74;45.66
64023;BME280;50264;52.088;5.296;2022-07-23T10:54:20;101970.0;;;24.89;44.58
64023;BME280;50264;52.088;5.296;2022-07-23T10:56:07;101972.0;;;25.13;46.2
64023;BME280;50264;52.088;5.296;2022-07-23T10:57:53;101968.0;;;25.05;44.75
64023;BME280;50264;52.088;5.296;2022-07-23T11:00:17;101968.0;;;25.11;45.18
64023;BME280;50264;52.088;5.296;2022-07-23T11:02:33;101967.0;;;25.26;44.28
64023;BME280;50264;52.088;5.296;2022-07-23T11:04:47;101968.0;;;25.29;44.72
64023;BME280;50264;52.088;5.296;2022-07-23T11:07:07;101961.0;;;25.41;42.8
64023;BME280;50264;52.088;5.296;2022-07-23T11:09:24;101968.0;;;25.5;41.26